createdAt,value
2016-05-20T00:00:02.720Z,1009.22
2016-05-20T00:01:02.770Z,1009.2
2016-05-20T00:02:02.819Z,1009.21
2016-05-20T00:03:02.868Z,1009.17
2016-05-20T00:04:02.918Z,1009.15
2016-05-20T00:05:02.967Z,1009.11
2016-05-20T00:06:03.033Z,1009.12
2016-05-20T00:07:03.067Z,1009.1
2016-05-20T00:08:03.117Z,1009.02
2016-05-20T00:09:03.166Z,1009
2016-05-20T00:10:03.215Z,1009.03
2016-05-20T00:11:03.265Z,1008.99
2016-05-20T00:12:03.330Z,1008.99
2016-05-20T00:13:03.380Z,1008.98
2016-05-20T00:14:03.413Z,1009
2016-05-20T00:15:03.479Z,1008.97
2016-05-20T00:16:03.528Z,1009.07
2016-05-20T00:17:03.578Z,1009.03
2016-05-20T00:18:03.628Z,1009.06
2016-05-20T00:19:03.677Z,1009.02
2016-05-20T00:20:03.742Z,1009.01
2016-05-20T00:21:03.792Z,1009
2016-05-20T00:22:03.826Z,1008.99
2016-05-20T00:23:03.891Z,1009.02
2016-05-20T00:24:04.316Z,1009.01
2016-05-20T00:25:03.974Z,1009.01
2016-05-20T00:26:04.040Z,1009.01
2016-05-20T00:27:04.089Z,1009
2016-05-20T00:28:04.138Z,1009.05
2016-05-20T00:29:04.173Z,1009.01
2016-05-20T00:30:04.254Z,1009.01
2016-05-20T00:31:04.288Z,1009.01
2016-05-20T00:32:04.337Z,1008.98
2016-05-20T00:33:04.387Z,1008.96
2016-05-20T00:34:04.437Z,1009
2016-05-20T00:35:04.487Z,1008.97
2016-05-20T00:36:04.535Z,1008.95
2016-05-20T00:37:04.585Z,1008.96
2016-05-20T00:38:04.634Z,1008.97
2016-05-20T00:39:05.090Z,1008.95
2016-05-20T00:40:04.750Z,1008.92
2016-05-20T00:41:04.798Z,1008.94
2016-05-20T00:42:04.848Z,1008.93
2016-05-20T00:43:04.897Z,1008.86
2016-05-20T00:44:04.947Z,1008.88
2016-05-20T00:45:04.998Z,1008.89
2016-05-20T00:46:05.047Z,1008.88
2016-05-20T00:47:05.096Z,1008.83
2016-05-20T00:48:05.146Z,1008.8
2016-05-20T00:49:05.195Z,1008.81
2016-05-20T00:50:05.245Z,1008.78
2016-05-20T00:51:05.294Z,1008.8
2016-05-20T00:52:05.344Z,1008.75
2016-05-20T00:53:05.394Z,1008.79
2016-05-20T00:54:05.443Z,1008.76
2016-05-20T00:55:05.493Z,1008.77
2016-05-20T00:56:05.558Z,1008.72
2016-05-20T00:57:05.591Z,1008.69
2016-05-20T00:58:05.657Z,1008.75
2016-05-20T00:59:05.707Z,1008.74
2016-05-20T01:00:05.757Z,1008.77
2016-05-20T01:01:05.806Z,1008.79
2016-05-20T01:02:05.855Z,1008.82
2016-05-20T01:03:05.905Z,1008.81
2016-05-20T01:04:05.955Z,1008.79
2016-05-20T01:05:06.020Z,1008.81
2016-05-20T01:06:06.054Z,1008.8
2016-05-20T01:07:06.103Z,1008.76
2016-05-20T01:08:06.215Z,1008.76
2016-05-20T01:09:06.203Z,1008.72
2016-05-20T01:10:06.267Z,1008.75
2016-05-20T01:11:06.364Z,1008.8
2016-05-20T01:12:06.366Z,1008.77
2016-05-20T01:13:06.416Z,1008.77
2016-05-20T01:14:06.467Z,1008.76
2016-05-20T01:15:06.514Z,1008.78
2016-05-20T01:16:06.564Z,1008.78
2016-05-20T01:17:06.614Z,1008.82
2016-05-20T01:18:06.664Z,1008.81
2016-05-20T01:19:06.730Z,1008.81
2016-05-20T01:20:06.763Z,1008.81
2016-05-20T01:21:06.813Z,1008.89
2016-05-20T01:22:06.862Z,1008.81
2016-05-20T01:23:06.911Z,1008.86
2016-05-20T01:24:07.133Z,1008.84
2016-05-20T01:25:07.026Z,1008.83
2016-05-20T01:26:07.076Z,1008.84
2016-05-20T01:27:07.126Z,1008.85
2016-05-20T01:28:07.175Z,1008.8
2016-05-20T01:29:07.225Z,1008.78
2016-05-20T01:30:07.274Z,1008.77
2016-05-20T01:31:07.324Z,1008.77
2016-05-20T01:32:07.374Z,1008.82
2016-05-20T01:33:07.423Z,1008.83
2016-05-20T01:34:07.473Z,1008.81
2016-05-20T01:35:07.523Z,1008.83
2016-05-20T01:36:07.571Z,1008.9
2016-05-20T01:37:07.621Z,1008.89
2016-05-20T01:38:07.687Z,1008.86
2016-05-20T01:39:08.314Z,1008.87
2016-05-20T01:40:07.770Z,1008.91
2016-05-20T01:41:07.819Z,1008.9
2016-05-20T01:42:07.885Z,1008.87
2016-05-20T01:43:07.920Z,1008.88
2016-05-20T01:44:07.983Z,1008.86
2016-05-20T01:45:08.034Z,1008.93
2016-05-20T01:46:08.067Z,1008.95
2016-05-20T01:47:08.133Z,1008.95
2016-05-20T01:48:08.183Z,1008.94
2016-05-20T01:49:08.247Z,1009
2016-05-20T01:50:08.281Z,1009.03
2016-05-20T01:51:08.330Z,1009
2016-05-20T01:52:08.380Z,1009.03
2016-05-20T01:53:08.430Z,1009.02
2016-05-20T01:54:08.479Z,1009.12
2016-05-20T01:55:08.529Z,1009.09
2016-05-20T01:56:08.594Z,1009.11
2016-05-20T01:57:08.644Z,1009.11
2016-05-20T01:58:08.677Z,1009.13
2016-05-20T01:59:08.743Z,1009.12
2016-05-20T02:00:08.777Z,1009.13
2016-05-20T02:01:08.843Z,1009.08
2016-05-20T02:02:08.891Z,1009.11
2016-05-20T02:03:08.941Z,1009.09
2016-05-20T02:04:08.990Z,1009.05
2016-05-20T02:05:09.040Z,1009.08
2016-05-20T02:06:09.090Z,1009.08
2016-05-20T02:07:09.139Z,1009.06
2016-05-20T02:08:09.204Z,1009.06
2016-05-20T02:09:09.239Z,1009.06
2016-05-20T02:10:09.288Z,1009.03
2016-05-20T02:11:09.338Z,1009.02
2016-05-20T02:12:09.388Z,1009.01
2016-05-20T02:13:09.453Z,1008.96
2016-05-20T02:14:09.503Z,1008.91
2016-05-20T02:15:09.536Z,1008.97
2016-05-20T02:16:09.600Z,1008.94
2016-05-20T02:17:09.651Z,1008.97
2016-05-20T02:18:09.716Z,1008.97
2016-05-20T02:19:09.750Z,1008.95
2016-05-20T02:20:09.800Z,1008.98
2016-05-20T02:21:09.849Z,1008.98
2016-05-20T02:22:09.899Z,1008.97
2016-05-20T02:23:09.963Z,1008.94
2016-05-20T02:24:09.998Z,1008.99
2016-05-20T02:25:10.047Z,1009.02
2016-05-20T02:26:10.097Z,1009.04
2016-05-20T02:27:10.163Z,1009.06
2016-05-20T02:28:10.196Z,1009.03
2016-05-20T02:29:10.246Z,1009.04
2016-05-20T02:30:10.310Z,1009.04
2016-05-20T02:31:10.344Z,1009.05
2016-05-20T02:32:10.394Z,1009.04
2016-05-20T02:33:10.459Z,1009.07
2016-05-20T02:34:10.493Z,1009.05
2016-05-20T02:35:10.542Z,1009.15
2016-05-20T02:36:10.607Z,1009.15
2016-05-20T02:37:10.657Z,1009.11
2016-05-20T02:38:10.707Z,1009.14
2016-05-20T02:39:10.757Z,1009.18
2016-05-20T02:40:10.807Z,1009.14
2016-05-20T02:41:10.856Z,1009.12
2016-05-20T02:42:10.953Z,1009.13
2016-05-20T02:43:10.956Z,1009.15
2016-05-20T02:44:11.004Z,1009.13
2016-05-20T02:45:11.054Z,1009.08
2016-05-20T02:46:11.103Z,1009.08
2016-05-20T02:47:11.169Z,1009.09
2016-05-20T02:48:11.219Z,1009.15
2016-05-20T02:49:11.268Z,1009.15
2016-05-20T02:50:11.317Z,1009.17
2016-05-20T02:51:11.367Z,1009.22
2016-05-20T02:52:11.417Z,1009.17
2016-05-20T02:53:11.467Z,1009.18
2016-05-20T02:54:11.594Z,1009.22
2016-05-20T02:55:11.566Z,1009.27
2016-05-20T02:56:11.616Z,1009.25
2016-05-20T02:57:11.664Z,1009.21
2016-05-20T02:58:11.714Z,1009.21
2016-05-20T02:59:11.763Z,1009.21
2016-05-20T03:00:11.813Z,1009.23
2016-05-20T03:01:11.863Z,1009.24
2016-05-20T03:02:11.913Z,1009.22
2016-05-20T03:03:11.963Z,1009.23
2016-05-20T03:04:12.026Z,1009.26
2016-05-20T03:05:12.077Z,1009.29
2016-05-20T03:06:12.110Z,1009.28
2016-05-20T03:07:12.160Z,1009.31
2016-05-20T03:08:12.226Z,1009.34
2016-05-20T03:09:12.275Z,1009.35
2016-05-20T03:10:12.324Z,1009.36
2016-05-20T03:11:12.374Z,1009.38
2016-05-20T03:12:12.423Z,1009.37
2016-05-20T03:13:12.473Z,1009.35
2016-05-20T03:14:12.538Z,1009.38
2016-05-20T03:15:12.572Z,1009.41
2016-05-20T03:16:12.623Z,1009.36
2016-05-20T03:17:12.687Z,1009.39
2016-05-20T03:18:12.720Z,1009.4
2016-05-20T03:19:12.771Z,1009.4
2016-05-20T03:20:12.836Z,1009.42
2016-05-20T03:21:12.869Z,1009.41
2016-05-20T03:22:12.935Z,1009.49
2016-05-20T03:23:12.984Z,1009.47
2016-05-20T03:24:13.033Z,1009.45
2016-05-20T03:25:13.068Z,1009.43
2016-05-20T03:26:13.134Z,1009.41
2016-05-20T03:27:13.182Z,1009.44
2016-05-20T03:28:13.216Z,1009.5
2016-05-20T03:29:13.282Z,1009.5
2016-05-20T03:30:13.332Z,1009.58
2016-05-20T03:31:13.381Z,1009.58
2016-05-20T03:32:13.430Z,1009.6
2016-05-20T03:33:13.480Z,1009.64
2016-05-20T03:34:13.529Z,1009.53
2016-05-20T03:35:13.579Z,1009.6
2016-05-20T03:36:13.629Z,1009.57
2016-05-20T03:37:13.693Z,1009.55
2016-05-20T03:38:13.728Z,1009.59
2016-05-20T03:39:13.777Z,1009.54
2016-05-20T03:40:13.843Z,1009.54
2016-05-20T03:41:13.892Z,1009.55
2016-05-20T03:42:13.942Z,1009.56
2016-05-20T03:43:13.976Z,1009.58
2016-05-20T03:44:14.041Z,1009.6
2016-05-20T03:45:14.090Z,1009.57
2016-05-20T03:46:14.140Z,1009.6
2016-05-20T03:47:14.189Z,1009.58
2016-05-20T03:48:14.239Z,1009.59
2016-05-20T03:49:14.288Z,1009.62
2016-05-20T03:50:14.338Z,1009.62
2016-05-20T03:51:14.388Z,1009.62
2016-05-20T03:52:14.437Z,1009.66
2016-05-20T03:53:14.487Z,1009.66
2016-05-20T03:54:14.881Z,1009.72
2016-05-20T03:55:14.586Z,1009.72
2016-05-20T03:56:14.636Z,1009.69
2016-05-20T03:57:14.686Z,1009.72
2016-05-20T03:58:14.750Z,1009.68
2016-05-20T03:59:14.800Z,1009.73
2016-05-20T04:00:14.833Z,1009.72
2016-05-20T04:01:14.899Z,1009.72
2016-05-20T04:02:14.949Z,1009.73
2016-05-20T04:03:14.999Z,1009.73
2016-05-20T04:04:15.048Z,1009.76
2016-05-20T04:05:15.097Z,1009.77
2016-05-20T04:06:15.147Z,1009.77
2016-05-20T04:07:15.197Z,1009.77
2016-05-20T04:08:15.246Z,1009.78
2016-05-20T04:09:15.295Z,1009.78
2016-05-20T04:10:15.346Z,1009.82
2016-05-20T04:11:15.395Z,1009.81
2016-05-20T04:12:15.445Z,1009.79
2016-05-20T04:13:15.493Z,1009.79
2016-05-20T04:14:15.543Z,1009.78
2016-05-20T04:15:15.609Z,1009.75
2016-05-20T04:16:15.643Z,1009.75
2016-05-20T04:17:15.693Z,1009.71
2016-05-20T04:18:15.757Z,1009.71
2016-05-20T04:19:15.807Z,1009.68
2016-05-20T04:20:15.842Z,1009.68
2016-05-20T04:21:15.906Z,1009.68
2016-05-20T04:22:15.940Z,1009.72
2016-05-20T04:23:16.005Z,1009.71
2016-05-20T04:24:16.523Z,1009.73
2016-05-20T04:25:16.105Z,1009.76
2016-05-20T04:26:16.153Z,1009.72
2016-05-20T04:27:16.203Z,1009.75
2016-05-20T04:28:16.252Z,1009.71
2016-05-20T04:29:16.302Z,1009.68
2016-05-20T04:30:16.353Z,1009.69
2016-05-20T04:31:16.402Z,1009.68
2016-05-20T04:32:16.452Z,1009.64
2016-05-20T04:33:16.501Z,1009.68
2016-05-20T04:34:16.550Z,1009.72
2016-05-20T04:35:16.600Z,1009.69
2016-05-20T04:36:16.649Z,1009.69
2016-05-20T04:37:16.699Z,1009.68
2016-05-20T04:38:16.764Z,1009.67
2016-05-20T04:39:16.799Z,1009.71
2016-05-20T04:40:16.849Z,1009.6
2016-05-20T04:41:16.913Z,1009.63
2016-05-20T04:42:16.963Z,1009.62
2016-05-20T04:43:17.012Z,1009.61
2016-05-20T04:44:17.062Z,1009.65
2016-05-20T04:45:17.159Z,1009.65
2016-05-20T04:46:17.161Z,1009.67
2016-05-20T04:47:17.210Z,1009.69
2016-05-20T04:48:17.259Z,1009.7
2016-05-20T04:49:17.309Z,1009.68
2016-05-20T04:50:17.359Z,1009.67
2016-05-20T04:51:17.408Z,1009.66
2016-05-20T04:52:17.459Z,1009.63
2016-05-20T04:53:17.508Z,1009.64
2016-05-20T04:54:17.558Z,1009.57
2016-05-20T04:55:17.623Z,1009.63
2016-05-20T04:56:17.672Z,1009.64
2016-05-20T04:57:17.705Z,1009.65
2016-05-20T04:58:17.771Z,1009.63
2016-05-20T04:59:17.821Z,1009.63
2016-05-20T05:00:17.870Z,1009.65
2016-05-20T05:01:17.919Z,1009.62
2016-05-20T05:02:17.970Z,1009.7
2016-05-20T05:03:18.018Z,1009.71
2016-05-20T05:04:18.068Z,1009.73
2016-05-20T05:05:18.103Z,1009.68
2016-05-20T05:06:18.168Z,1009.71
2016-05-20T05:07:18.218Z,1009.71
2016-05-20T05:08:18.266Z,1009.72
2016-05-20T05:09:18.410Z,1009.7
2016-05-20T05:10:18.366Z,1009.7
2016-05-20T05:11:18.415Z,1009.71
2016-05-20T05:12:18.465Z,1009.71
2016-05-20T05:13:18.514Z,1009.7
2016-05-20T05:14:18.564Z,1009.73
2016-05-20T05:15:18.614Z,1009.75
2016-05-20T05:16:18.663Z,1009.74
2016-05-20T05:17:18.713Z,1009.75
2016-05-20T05:18:18.778Z,1009.72
2016-05-20T05:19:18.828Z,1009.73
2016-05-20T05:20:18.862Z,1009.69
2016-05-20T05:21:18.927Z,1009.75
2016-05-20T05:22:18.976Z,1009.76
2016-05-20T05:23:19.025Z,1009.79
2016-05-20T05:24:19.076Z,1009.74
2016-05-20T05:25:19.125Z,1009.74
2016-05-20T05:26:19.174Z,1009.75
2016-05-20T05:27:19.224Z,1009.71
2016-05-20T05:28:19.274Z,1009.66
2016-05-20T05:29:19.323Z,1009.64
2016-05-20T05:30:19.373Z,1009.69
2016-05-20T05:31:19.422Z,1009.69
2016-05-20T05:32:19.488Z,1009.67
2016-05-20T05:33:19.522Z,1009.69
2016-05-20T05:34:19.572Z,1009.66
2016-05-20T05:35:19.636Z,1009.65
2016-05-20T05:36:19.686Z,1009.67
2016-05-20T05:37:19.719Z,1009.66
2016-05-20T05:38:19.785Z,1009.65
2016-05-20T05:39:20.100Z,1009.62
2016-05-20T05:40:19.868Z,1009.61
2016-05-20T05:41:19.919Z,1009.6
2016-05-20T05:42:19.983Z,1009.64
2016-05-20T05:43:20.032Z,1009.66
2016-05-20T05:44:20.083Z,1009.66
2016-05-20T05:45:20.131Z,1009.73
2016-05-20T05:46:20.182Z,1009.71
2016-05-20T05:47:20.231Z,1009.68
2016-05-20T05:48:20.281Z,1009.66
2016-05-20T05:49:20.345Z,1009.63
2016-05-20T05:50:20.380Z,1009.67
2016-05-20T05:51:20.429Z,1009.71
2016-05-20T05:52:20.479Z,1009.7
2016-05-20T05:53:20.528Z,1009.69
2016-05-20T05:54:20.703Z,1009.67
2016-05-20T05:55:20.628Z,1009.77
2016-05-20T05:56:20.677Z,1009.68
2016-05-20T05:57:20.743Z,1009.78
2016-05-20T05:58:20.776Z,1009.83
2016-05-20T05:59:20.855Z,1009.87
2016-05-20T06:00:20.949Z,1009.8
2016-05-20T06:01:21.043Z,1009.84
2016-05-20T06:02:21.138Z,1009.83
2016-05-20T06:03:21.216Z,1009.77
2016-05-20T06:04:21.316Z,1009.82
2016-05-20T06:05:21.382Z,1009.82
2016-05-20T06:06:21.448Z,1009.85
2016-05-20T06:07:21.514Z,1009.87
2016-05-20T06:08:21.580Z,1009.83
2016-05-20T06:09:21.643Z,1009.84
2016-05-20T06:10:21.698Z,1009.82
2016-05-20T06:11:21.768Z,1009.84
2016-05-20T06:12:21.808Z,1009.94
2016-05-20T06:13:21.863Z,1009.78
2016-05-20T06:14:21.933Z,1009.75
2016-05-20T06:15:21.969Z,1009.85
2016-05-20T06:16:22.035Z,1009.85
2016-05-20T06:17:22.072Z,1009.77
2016-05-20T06:18:22.139Z,1009.82
2016-05-20T06:19:22.191Z,1009.8
2016-05-20T06:20:22.224Z,1009.72
2016-05-20T06:21:22.276Z,1009.81
2016-05-20T06:22:22.341Z,1009.87
2016-05-20T06:23:22.393Z,1009.93
2016-05-20T06:24:22.442Z,1009.89
2016-05-20T06:25:22.507Z,1009.86
2016-05-20T06:26:22.542Z,1009.89
2016-05-20T06:27:22.592Z,1009.96
2016-05-20T06:28:22.642Z,1009.83
2016-05-20T06:29:22.692Z,1009.92
2016-05-20T06:30:22.741Z,1009.94
2016-05-20T06:31:22.791Z,1009.87
2016-05-20T06:32:22.840Z,1009.92
2016-05-20T06:33:22.906Z,1009.98
2016-05-20T06:34:22.939Z,1009.94
2016-05-20T06:35:22.989Z,1009.93
2016-05-20T06:36:23.055Z,1009.9
2016-05-20T06:37:23.104Z,1009.87
2016-05-20T06:38:23.138Z,1009.93
2016-05-20T06:39:23.203Z,1009.95
2016-05-20T06:40:23.441Z,1009.96
2016-05-20T06:41:23.286Z,1010
2016-05-20T06:42:23.351Z,1009.91
2016-05-20T06:43:23.402Z,1009.96
2016-05-20T06:44:23.451Z,1010.12
2016-05-20T06:45:23.500Z,1009.88
2016-05-20T06:46:23.549Z,1009.94
2016-05-20T06:47:23.599Z,1009.9
2016-05-20T06:48:23.649Z,1009.95
2016-05-20T06:49:23.698Z,1009.98
2016-05-20T06:50:23.748Z,1009.96
2016-05-20T06:51:23.813Z,1009.96
2016-05-20T06:52:23.848Z,1009.88
2016-05-20T06:53:23.896Z,1009.89
2016-05-20T06:54:24.353Z,1009.83
2016-05-20T06:55:24.012Z,1009.87
2016-05-20T06:56:24.062Z,1009.98
2016-05-20T06:57:24.126Z,1009.88
2016-05-20T06:58:24.160Z,1009.85
2016-05-20T06:59:24.210Z,1009.91
2016-05-20T07:00:24.259Z,1009.95
2016-05-20T07:01:24.309Z,1009.94
2016-05-20T07:02:24.359Z,1009.93
2016-05-20T07:03:24.408Z,1010.07
2016-05-20T07:04:24.458Z,1009.97
2016-05-20T07:05:24.507Z,1009.93
2016-05-20T07:06:24.556Z,1009.89
2016-05-20T07:07:24.606Z,1010.01
2016-05-20T07:08:24.656Z,1009.89
2016-05-20T07:09:24.705Z,1009.9
2016-05-20T07:10:24.755Z,1009.92
2016-05-20T07:11:24.805Z,1009.94
2016-05-20T07:12:24.855Z,1010.02
2016-05-20T07:13:24.919Z,1009.98
2016-05-20T07:14:24.953Z,1010.02
2016-05-20T07:15:25.003Z,1010.01
2016-05-20T07:16:25.069Z,1010.04
2016-05-20T07:17:25.118Z,1010.02
2016-05-20T07:18:25.152Z,1010.12
2016-05-20T07:19:25.217Z,1010.07
2016-05-20T07:20:25.266Z,1010.01
2016-05-20T07:21:25.315Z,1010.05
2016-05-20T07:22:25.365Z,1010.03
2016-05-20T07:23:25.415Z,1010.05
2016-05-20T07:24:25.465Z,1010.07
2016-05-20T07:25:25.529Z,1010.06
2016-05-20T07:26:25.564Z,1010
2016-05-20T07:27:25.613Z,1009.96
2016-05-20T07:28:25.663Z,1010.03
2016-05-20T07:29:25.743Z,1010.03
2016-05-20T07:30:25.762Z,1009.97
2016-05-20T07:31:25.812Z,1010.07
2016-05-20T07:32:25.862Z,1009.98
2016-05-20T07:33:25.911Z,1009.96
2016-05-20T07:34:25.961Z,1009.96
2016-05-20T07:35:26.026Z,1010.02
2016-05-20T07:36:26.059Z,1010.01
2016-05-20T07:37:26.124Z,1010
2016-05-20T07:38:26.174Z,1010.01
2016-05-20T07:39:26.224Z,1010.01
2016-05-20T07:40:26.273Z,1009.98
2016-05-20T07:41:26.322Z,1010.02
2016-05-20T07:42:26.372Z,1009.97
2016-05-20T07:43:26.422Z,1009.92
2016-05-20T07:44:26.472Z,1010.04
2016-05-20T07:45:26.521Z,1010.04
2016-05-20T07:46:26.571Z,1010.1
2016-05-20T07:47:26.621Z,1010.11
2016-05-20T07:48:26.669Z,1010.03
2016-05-20T07:49:26.735Z,1010.09
2016-05-20T07:50:26.769Z,1010.09
2016-05-20T07:51:26.819Z,1010.1
2016-05-20T07:52:26.885Z,1010.09
2016-05-20T07:53:26.917Z,1010.08
2016-05-20T07:54:26.967Z,1010.01
2016-05-20T07:55:27.126Z,1010.11
2016-05-20T07:56:27.066Z,1010.09
2016-05-20T07:57:27.115Z,1010
2016-05-20T07:58:27.181Z,1010.05
2016-05-20T07:59:27.231Z,1010.01
2016-05-20T08:00:27.281Z,1010.03
2016-05-20T08:01:27.329Z,1010
2016-05-20T08:02:33.632Z,1010.02
2016-05-20T08:03:27.445Z,1010.01
2016-05-20T08:04:27.478Z,1010.04
2016-05-20T08:05:27.528Z,1010
2016-05-20T08:06:27.593Z,1010
2016-05-20T08:07:31.314Z,1009.97
2016-05-20T08:08:27.677Z,1009.99
2016-05-20T08:09:27.726Z,1009.96
2016-05-20T08:10:28.464Z,1009.96
2016-05-20T08:11:27.825Z,1010.01
2016-05-20T08:12:27.875Z,1009.92
2016-05-20T08:13:27.956Z,1009.9
2016-05-20T08:14:27.989Z,1009.94
2016-05-20T08:15:28.024Z,1009.96
2016-05-20T08:16:28.074Z,1009.96
2016-05-20T08:17:33.422Z,1009.9
2016-05-20T08:18:28.188Z,1009.92
2016-05-20T08:19:28.238Z,1009.97
2016-05-20T08:20:31.349Z,1009.96
2016-05-20T08:21:28.337Z,1010.02
2016-05-20T08:22:28.480Z,1009.87
2016-05-20T08:23:28.435Z,1009.88
2016-05-20T08:24:28.485Z,1009.94
2016-05-20T08:25:31.223Z,1009.95
2016-05-20T08:26:28.726Z,1009.87
2016-05-20T08:27:28.634Z,1009.89
2016-05-20T08:28:28.684Z,1010.06
2016-05-20T08:29:28.748Z,1010.08
2016-05-20T08:30:28.814Z,1009.97
2016-05-20T08:31:28.848Z,1010.03
2016-05-20T08:32:28.881Z,1010.05
2016-05-20T08:33:28.932Z,1009.94
2016-05-20T08:34:31.653Z,1009.99
2016-05-20T08:35:29.046Z,1010
2016-05-20T08:36:29.095Z,1009.97
2016-05-20T08:37:29.145Z,1010.14
2016-05-20T08:38:29.179Z,1010.11
2016-05-20T08:39:29.244Z,1009.97
2016-05-20T08:40:29.294Z,1009.98
2016-05-20T08:41:29.344Z,1010.02
2016-05-20T08:42:29.394Z,1010.02
2016-05-20T08:43:29.443Z,1010.09
2016-05-20T08:44:29.492Z,1010.12
2016-05-20T08:45:29.541Z,1010.03
2016-05-20T08:46:29.591Z,1010.19
2016-05-20T08:47:29.641Z,1010.05
2016-05-20T08:48:29.691Z,1010.03
2016-05-20T08:49:29.741Z,1010.07
2016-05-20T08:50:29.805Z,1010
2016-05-20T08:51:29.855Z,1010.13
2016-05-20T08:52:29.889Z,1010.12
2016-05-20T08:53:29.938Z,1010.05
2016-05-20T08:54:30.004Z,1010.01
2016-05-20T08:55:30.053Z,1010.11
2016-05-20T08:56:30.088Z,1010.05
2016-05-20T08:57:30.152Z,1010.03
2016-05-20T08:58:30.201Z,1010.14
2016-05-20T08:59:30.252Z,1010.05
2016-05-20T09:00:30.301Z,1009.99
2016-05-20T09:01:30.351Z,1010.07
2016-05-20T09:02:30.400Z,1009.99
2016-05-20T09:03:30.450Z,1010.06
2016-05-20T09:04:30.515Z,1009.94
2016-05-20T09:05:30.549Z,1009.95
2016-05-20T09:06:30.598Z,1009.97
2016-05-20T09:07:30.663Z,1010.07
2016-05-20T09:08:30.698Z,1010.07
2016-05-20T09:09:30.747Z,1009.95
2016-05-20T09:10:30.812Z,1010.06
2016-05-20T09:11:30.847Z,1010.09
2016-05-20T09:12:30.895Z,1010.07
2016-05-20T09:13:30.961Z,1009.97
2016-05-20T09:14:30.995Z,1009.97
2016-05-20T09:15:31.060Z,1009.87
2016-05-20T09:16:31.094Z,1010.16
2016-05-20T09:17:31.144Z,1010.07
2016-05-20T09:18:31.209Z,1010.02
2016-05-20T09:19:31.259Z,1009.91
2016-05-20T09:20:31.308Z,1009.95
2016-05-20T09:21:31.358Z,1010.06
2016-05-20T09:22:31.407Z,1010.03
2016-05-20T09:23:31.504Z,1010.15
2016-05-20T09:24:31.507Z,1010.06
2016-05-20T09:25:31.555Z,1010.01
2016-05-20T09:26:31.605Z,1010.08
2016-05-20T09:27:31.670Z,1010.01
2016-05-20T09:28:31.705Z,1010.12
2016-05-20T09:29:31.770Z,1010.05
2016-05-20T09:30:31.804Z,1010.03
2016-05-20T09:31:31.854Z,1009.99
2016-05-20T09:32:31.918Z,1010.04
2016-05-20T09:33:31.968Z,1010.05
2016-05-20T09:34:32.002Z,1010.08
2016-05-20T09:35:32.067Z,1010
2016-05-20T09:36:32.132Z,1010
2016-05-20T09:37:32.150Z,1009.99
2016-05-20T09:38:32.215Z,1009.99
2016-05-20T09:39:32.265Z,1009.94
2016-05-20T09:40:32.330Z,1010.04
2016-05-20T09:41:32.364Z,1010.06
2016-05-20T09:42:32.414Z,1010.04
2016-05-20T09:43:32.464Z,1010.15
2016-05-20T09:44:32.529Z,1010.19
2016-05-20T09:45:32.563Z,1010.14
2016-05-20T09:46:32.628Z,1010.06
2016-05-20T09:47:32.677Z,1010.11
2016-05-20T09:48:32.711Z,1010.08
2016-05-20T09:49:32.761Z,1010.02
2016-05-20T09:50:32.827Z,1010.08
2016-05-20T09:51:32.860Z,1010.04
2016-05-20T09:52:32.910Z,1010.03
2016-05-20T09:53:32.960Z,1010.04
2016-05-20T09:54:33.024Z,1010.1
2016-05-20T09:55:33.090Z,1010.02
2016-05-20T09:56:33.107Z,1010.22
2016-05-20T09:57:33.158Z,1010.1
2016-05-20T09:58:33.223Z,1010.22
2016-05-20T09:59:33.271Z,1010.22
2016-05-20T10:00:33.321Z,1010.14
2016-05-20T10:01:33.371Z,1010.12
2016-05-20T10:02:33.421Z,1010.18
2016-05-20T10:03:33.471Z,1010.15
2016-05-20T10:04:33.520Z,1010.16
2016-05-20T10:05:33.585Z,1010.2
2016-05-20T10:06:33.635Z,1010.14
2016-05-20T10:07:33.669Z,1010.18
2016-05-20T10:08:33.718Z,1010.29
2016-05-20T10:09:33.768Z,1010.33
2016-05-20T10:10:33.817Z,1010.21
2016-05-20T10:11:33.867Z,1010.24
2016-05-20T10:12:33.932Z,1010.23
2016-05-20T10:13:33.981Z,1010.3
2016-05-20T10:14:34.031Z,1010.24
2016-05-20T10:15:34.081Z,1010.23
2016-05-20T10:16:34.130Z,1010.22
2016-05-20T10:17:34.180Z,1010.2
2016-05-20T10:18:34.230Z,1010.2
2016-05-20T10:19:34.263Z,1010.19
2016-05-20T10:20:34.328Z,1010.24
2016-05-20T10:21:34.378Z,1010.24
2016-05-20T10:22:34.427Z,1010.27
2016-05-20T10:23:34.493Z,1010.22
2016-05-20T10:24:34.574Z,1010.2
2016-05-20T10:25:34.733Z,1010.28
2016-05-20T10:26:34.641Z,1010.34
2016-05-20T10:27:34.691Z,1010.28
2016-05-20T10:28:34.724Z,1010.33
2016-05-20T10:29:34.774Z,1010.31
2016-05-20T10:30:34.871Z,1010.27
2016-05-20T10:31:34.905Z,1010.23
2016-05-20T10:32:34.939Z,1010.22
2016-05-20T10:33:34.973Z,1010.32
2016-05-20T10:34:35.038Z,1010.19
2016-05-20T10:35:35.088Z,1010.34
2016-05-20T10:36:35.137Z,1010.31
2016-05-20T10:37:35.187Z,1010.31
2016-05-20T10:38:35.237Z,1010.3
2016-05-20T10:39:35.286Z,1010.27
2016-05-20T10:40:35.336Z,1010.3
2016-05-20T10:41:35.401Z,1010.41
2016-05-20T10:42:35.450Z,1010.34
2016-05-20T10:43:35.516Z,1010.27
2016-05-20T10:44:35.549Z,1010.28
2016-05-20T10:45:35.646Z,1010.32
2016-05-20T10:46:35.634Z,1010.29
2016-05-20T10:47:35.698Z,1010.32
2016-05-20T10:48:35.748Z,1010.31
2016-05-20T10:49:35.798Z,1010.24
2016-05-20T10:50:35.847Z,1010.28
2016-05-20T10:51:35.896Z,1010.31
2016-05-20T10:52:36.009Z,1010.29
2016-05-20T10:53:35.996Z,1010.2
2016-05-20T10:54:36.045Z,1010.33
2016-05-20T10:55:36.094Z,1010.34
2016-05-20T10:56:36.144Z,1010.34
2016-05-20T10:57:36.194Z,1010.35
2016-05-20T10:58:36.244Z,1010.31
2016-05-20T10:59:36.294Z,1010.28
2016-05-20T11:00:36.342Z,1010.36
2016-05-20T11:01:36.392Z,1010.27
2016-05-20T11:02:36.457Z,1010.37
2016-05-20T11:03:36.491Z,1010.35
2016-05-20T11:04:36.541Z,1010.29
2016-05-20T11:05:36.606Z,1010.36
2016-05-20T11:06:36.640Z,1010.42
2016-05-20T11:07:36.690Z,1010.31
2016-05-20T11:08:36.754Z,1010.43
2016-05-20T11:09:36.804Z,1010.38
2016-05-20T11:10:36.854Z,1010.29
2016-05-20T11:11:36.904Z,1010.27
2016-05-20T11:12:36.938Z,1010.28
2016-05-20T11:13:37.003Z,1010.36
2016-05-20T11:14:37.052Z,1010.35
2016-05-20T11:15:37.101Z,1010.33
2016-05-20T11:16:37.151Z,1010.29
2016-05-20T11:17:37.264Z,1010.3
2016-05-20T11:18:37.250Z,1010.33
2016-05-20T11:19:37.300Z,1010.31
2016-05-20T11:20:37.350Z,1010.3
2016-05-20T11:21:37.399Z,1010.31
2016-05-20T11:22:37.511Z,1010.29
2016-05-20T11:23:37.497Z,1010.33
2016-05-20T11:24:37.563Z,1010.35
2016-05-20T11:25:37.613Z,1010.25
2016-05-20T11:26:37.647Z,1010.35
2016-05-20T11:27:37.712Z,1010.38
2016-05-20T11:28:37.761Z,1010.29
2016-05-20T11:29:37.811Z,1010.42
2016-05-20T11:30:37.861Z,1010.34
2016-05-20T11:31:37.911Z,1010.34
2016-05-20T11:32:37.960Z,1010.33
2016-05-20T11:33:38.010Z,1010.32
2016-05-20T11:34:38.059Z,1010.36
2016-05-20T11:35:38.109Z,1010.33
2016-05-20T11:36:38.158Z,1010.37
2016-05-20T11:37:38.207Z,1010.39
2016-05-20T11:38:38.257Z,1010.38
2016-05-20T11:39:38.306Z,1010.39
2016-05-20T11:40:38.356Z,1010.4
2016-05-20T11:41:38.406Z,1010.32
2016-05-20T11:42:38.471Z,1010.38
2016-05-20T11:43:38.520Z,1010.39
2016-05-20T11:44:38.555Z,1010.36
2016-05-20T11:45:38.620Z,1010.49
2016-05-20T11:46:38.669Z,1010.42
2016-05-20T11:47:38.719Z,1010.4
2016-05-20T11:48:38.769Z,1010.41
2016-05-20T11:49:38.818Z,1010.47
2016-05-20T11:50:38.867Z,1010.41
2016-05-20T11:51:38.918Z,1010.44
2016-05-20T11:52:38.966Z,1010.4
2016-05-20T11:53:39.032Z,1010.5
2016-05-20T11:54:39.081Z,1010.37
2016-05-20T11:55:39.116Z,1010.46
2016-05-20T11:56:39.166Z,1010.42
2016-05-20T11:57:39.214Z,1010.36
2016-05-20T11:58:39.264Z,1010.38
2016-05-20T11:59:39.330Z,1010.39
2016-05-20T12:00:39.379Z,1010.34
2016-05-20T12:01:39.429Z,1010.57
2016-05-20T12:02:39.463Z,1010.38
2016-05-20T12:03:39.512Z,1010.4
2016-05-20T12:04:39.577Z,1010.39
2016-05-20T12:05:39.627Z,1010.34
2016-05-20T12:06:39.676Z,1010.37
2016-05-20T12:07:39.741Z,1010.39
2016-05-20T12:08:39.775Z,1010.38